Lindenwood, Illinois
Current Conditions -  °F | °C
As of 10:55 PM on Saturday 25 Oct 2014 (Local Time) from KRPJ Reporting Station
Clear Clear  
Wind Chill: 44°   Ceiling: Unl
Heat Index: 46°   Visibility: 10mi
Dew Point: 32°   Wind: 5mph
Humidity: 57%   Direction: 270°W
Pressure: 30.02"   Gusts: NA
Location:  42.05°N, 89.03°W
Report Text: KRPJ 260355Z AUTO 27004KT 10SM CLR 08/00 A3002 RMK AO2 T00800000
Loading
Personal Weather Stations






























Interactive Weather Map New forecast layout! Learn more

10-Day Weather Forecast

Advertisements
Track Severe Weather on mobile